Time;durP1;ratioP1;P1;durP2;ratioP2;P2;SDS_P1;SDS_P2;PMS_P1;PMS_P2;Temp;Humidity;BMP_temperature;BMP_pressure;BME280_temperature;BME280_humidity;BME280_pressure;Samples;Min_cycle;Max_cycle;Signal;HPM_P1;HPM_P2
2022/09/09 00:00:19;;;;;;;6.30;4.00;;;;;;;13.71;100.00;91225.06;5031052;28;20087;-64
2022/09/09 00:03:10;;;;;;;5.88;4.55;;;;;;;13.79;100.00;91226.16;5031028;28;20052;-64
2022/09/09 00:06:08;;;;;;;4.43;3.80;;;;;;;13.85;100.00;91227.53;5020802;28;20120;-64
2022/09/09 00:09:11;;;;;;;4.82;3.47;;;;;;;13.81;100.00;91231.97;4998951;28;20136;-64
2022/09/09 00:11:51;;;;;;;4.85;3.05;;;;;;;13.67;100.00;91226.81;5026562;28;20121;-64
2022/09/09 00:14:36;;;;;;;6.40;3.05;;;;;;;13.67;100.00;91220.69;5030805;28;20037;-64
2022/09/09 00:17:09;;;;;;;3.25;2.80;;;;;;;13.66;100.00;91219.09;5030350;28;20068;-64
2022/09/09 00:19:35;;;;;;;5.60;3.40;;;;;;;13.58;100.00;91222.59;5030861;28;20034;-64
2022/09/09 00:22:20;;;;;;;4.97;4.00;;;;;;;13.49;100.00;91211.94;5030881;28;20029;-64
2022/09/09 00:24:53;;;;;;;4.88;3.42;;;;;;;13.47;100.00;91219.47;5030711;28;20112;-64
2022/09/09 00:27:40;;;;;;;4.97;3.53;;;;;;;13.45;100.00;91214.47;5030746;28;20036;-64
2022/09/09 00:30:22;;;;;;;5.72;3.45;;;;;;;13.44;100.00;91218.25;5032336;28;20777;-64
2022/09/09 00:32:50;;;;;;;3.30;2.80;;;;;;;13.44;100.00;91226.25;5034534;28;20032;-64
2022/09/09 00:35:18;;;;;;;4.40;3.45;;;;;;;13.42;100.00;91225.78;5034460;28;20108;-64
2022/09/09 00:37:48;;;;;;;4.72;3.88;;;;;;;13.32;100.00;91220.78;5034493;28;20033;-64
2022/09/09 00:40:30;;;;;;;4.57;3.78;;;;;;;13.31;100.00;91224.56;5034396;28;20053;-64
2022/09/09 00:43:32;;;;;;;4.68;3.45;;;;;;;13.33;100.00;91219.66;5034352;28;20028;-64
2022/09/09 00:46:28;;;;;;;4.93;3.78;;;;;;;13.27;100.00;91218.28;5030822;28;20418;-64
2022/09/09 00:49:07;;;;;;;4.88;3.38;;;;;;;13.33;100.00;91206.31;5034267;28;20060;-64
2022/09/09 00:51:50;;;;;;;5.68;3.97;;;;;;;13.27;100.00;91215.59;5034256;28;20486;-64
2022/09/09 00:54:24;;;;;;;6.28;4.28;;;;;;;13.24;100.00;91208.19;5034168;28;20056;-63
2022/09/09 00:56:58;;;;;;;4.95;4.03;;;;;;;13.30;100.00;91209.63;5034139;28;20029;-64
2022/09/09 00:59:43;;;;;;;4.68;3.45;;;;;;;13.27;100.00;91209.47;5034048;28;20030;-64
2022/09/09 01:02:28;;;;;;;6.35;3.97;;;;;;;13.21;100.00;91208.84;5034018;28;20033;-63
2022/09/09 01:04:54;;;;;;;5.45;4.15;;;;;;;13.23;100.00;91206.63;5034134;28;20029;-64
2022/09/09 01:07:20;;;;;;;3.75;3.35;;;;;;;13.14;100.00;91195.16;5033938;28;20040;-64
2022/09/09 01:09:56;;;;;;;3.88;3.45;;;;;;;13.15;100.00;91200.19;5033908;28;20491;-64
2022/09/09 01:12:43;;;;;;;4.40;3.22;;;;;;;13.24;100.00;91202.06;5034042;28;20407;-64
2022/09/09 01:15:11;;;;;;;13.23;4.05;;;;;;;13.27;100.00;91186.22;5033729;28;20028;-64
2022/09/09 01:17:58;;;;;;;9.35;3.13;;;;;;;13.39;100.00;91190.88;5033768;28;20033;-64
2022/09/09 01:20:33;;;;;;;13.43;7.85;;;;;;;13.39;100.00;91180.97;5033674;28;20021;-64
2022/09/09 01:23:23;;;;;;;4.38;2.92;;;;;;;13.35;100.00;91180.06;5033658;28;20021;-64
2022/09/09 01:26:26;;;;;;;8.95;5.32;;;;;;;13.33;100.00;91187.59;5033490;28;20033;-64
2022/09/09 01:28:52;;;;;;;6.72;3.17;;;;;;;13.28;100.00;91176.31;5033334;28;20041;-64
2022/09/09 01:31:43;;;;;;;4.88;2.85;;;;;;;13.26;100.00;91179.31;5033503;28;20033;-64
2022/09/09 01:34:13;;;;;;;3.13;2.42;;;;;;;13.33;100.00;91189.50;5033401;28;20030;-64
2022/09/09 01:36:44;;;;;;;3.38;2.95;;;;;;;13.34;100.00;91181.16;5033222;28;20503;-63
2022/09/09 01:39:11;;;;;;;7.40;3.22;;;;;;;13.48;100.00;91195.09;5033581;28;20701;-64
2022/09/09 01:41:37;;;;;;;4.28;2.92;;;;;;;13.52;100.00;91189.91;5033012;28;20036;-64
2022/09/09 01:44:03;;;;;;;8.20;3.70;;;;;;;13.39;100.00;91183.66;5033325;28;20450;-64
2022/09/09 01:46:28;;;;;;;6.18;3.40;;;;;;;13.24;100.00;91178.03;5033383;28;20491;-64
2022/09/09 01:48:56;;;;;;;3.50;3.03;;;;;;;13.13;100.00;91196.28;5033163;28;20124;-64
2022/09/09 01:51:22;;;;;;;5.43;3.53;;;;;;;13.08;100.00;91196.41;5033175;28;20095;-64
2022/09/09 01:53:48;;;;;;;6.68;3.33;;;;;;;13.13;100.00;91198.94;5033003;28;20021;-64
2022/09/09 01:56:28;;;;;;;5.65;4.07;;;;;;;13.02;100.00;91200.34;5032914;28;20032;-64
2022/09/09 01:59:05;;;;;;;5.13;2.90;;;;;;;12.94;100.00;91203.81;5032993;28;20041;-64
2022/09/09 02:02:03;;;;;;;5.10;3.10;;;;;;;12.98;100.00;91204.78;5031734;28;20558;-64
2022/09/09 02:04:34;;;;;;;4.32;3.22;;;;;;;13.01;100.00;91210.25;5032773;28;20115;-64
2022/09/09 02:07:00;;;;;;;4.72;3.58;;;;;;;12.92;100.00;91206.00;5015081;28;20029;-64
2022/09/09 02:09:28;;;;;;;8.68;2.90;;;;;;;12.87;100.00;91202.41;5193591;22;20074;-64
2022/09/09 02:12:03;;;;;;;5.80;3.22;;;;;;;12.90;100.00;91209.00;5074827;28;20122;-63
2022/09/09 02:14:34;;;;;;;8.32;3.60;;;;;;;12.84;100.00;91208.38;5092771;28;20425;-63
2022/09/09 02:17:07;;;;;;;5.38;4.25;;;;;;;12.69;100.00;91198.19;5093126;28;20035;-63
2022/09/09 02:19:37;;;;;;;5.63;4.28;;;;;;;12.44;100.00;91212.28;5092661;28;20077;-63
2022/09/09 02:22:03;;;;;;;7.25;4.35;;;;;;;12.23;100.00;91209.44;5092729;28;20093;-64
2022/09/09 02:24:33;;;;;;;6.35;4.70;;;;;;;11.92;100.00;91204.19;5092724;28;20024;-64
2022/09/09 02:27:02;;;;;;;7.57;5.20;;;;;;;11.74;100.00;91203.31;5092639;28;20020;-64
2022/09/09 02:29:35;;;;;;;9.13;5.85;;;;;;;11.52;100.00;91198.84;5092497;28;20031;-64
2022/09/09 02:32:05;;;;;;;8.00;5.35;;;;;;;11.49;100.00;91203.97;5092577;28;20032;-64
2022/09/09 02:34:36;;;;;;;9.40;6.10;;;;;;;11.44;100.00;91191.59;5092448;28;20028;-64
2022/09/09 02:37:03;;;;;;;7.32;5.35;;;;;;;11.45;100.00;91198.50;5092352;28;20485;-64
2022/09/09 02:39:29;;;;;;;10.38;6.35;;;;;;;11.59;100.00;91199.19;5092317;28;20481;-64
2022/09/09 02:41:54;;;;;;;11.40;6.68;;;;;;;11.72;100.00;91197.50;5092634;28;20031;-64
2022/09/09 02:44:20;;;;;;;9.32;6.35;;;;;;;11.75;100.00;91204.09;5092354;28;20111;-64
2022/09/09 02:47:04;;;;;;;7.43;5.75;;;;;;;11.99;100.00;91213.31;5092437;28;20538;-64
2022/09/09 02:49:39;;;;;;;9.35;6.78;;;;;;;12.03;100.00;91218.03;5073989;28;20386;-64
2022/09/09 02:52:15;;;;;;;11.52;6.35;;;;;;;11.95;100.00;91207.00;5091547;28;20382;-64
2022/09/09 02:54:43;;;;;;;10.25;6.90;;;;;;;11.95;100.00;91209.69;5092121;28;20036;-64
2022/09/09 02:57:17;;;;;;;8.02;6.03;;;;;;;11.95;100.00;91207.00;5092167;28;20043;-64
2022/09/09 02:59:44;;;;;;;7.22;5.28;;;;;;;11.96;100.00;91197.13;5091958;28;20067;-65
2022/09/09 03:02:11;;;;;;;6.05;4.78;;;;;;;11.98;100.00;91194.94;5091972;28;20028;-64
2022/09/09 03:04:37;;;;;;;6.47;4.95;;;;;;;11.98;100.00;91200.28;5091967;28;20024;-64
2022/09/09 03:07:03;;;;;;;7.18;5.38;;;;;;;12.13;100.00;91204.38;5091888;28;20023;-64
2022/09/09 03:09:29;;;;;;;7.47;5.50;;;;;;;12.13;100.00;91207.84;5091590;28;20059;-64
2022/09/09 03:11:55;;;;;;;6.80;4.22;;;;;;;12.11;100.00;91199.38;5091842;28;20122;-64
2022/09/09 03:14:24;;;;;;;6.38;5.07;;;;;;;12.16;100.00;91193.13;5091749;28;20207;-64
2022/09/09 03:16:50;;;;;;;7.63;4.25;;;;;;;12.13;100.00;91191.06;5091729;28;20024;-64
2022/09/09 03:19:16;;;;;;;7.63;4.07;;;;;;;12.18;100.00;91194.38;5091597;28;20473;-64
2022/09/09 03:21:41;;;;;;;4.90;3.47;;;;;;;12.13;100.00;91197.16;5091657;28;20088;-64
2022/09/09 03:24:07;;;;;;;6.00;4.18;;;;;;;12.08;100.00;91197.31;5091640;28;20028;-64
2022/09/09 03:26:33;;;;;;;6.90;4.75;;;;;;;12.09;100.00;91198.88;5091586;28;20063;-64
2022/09/09 03:29:00;;;;;;;7.22;5.13;;;;;;;12.06;100.00;91198.72;5091412;28;20382;-64
2022/09/09 03:31:26;;;;;;;7.72;4.20;;;;;;;11.92;100.00;91191.63;5091769;28;20028;-64
2022/09/09 03:33:51;;;;;;;7.68;5.32;;;;;;;11.98;100.00;91206.38;5091567;28;20028;-64
2022/09/09 03:36:17;;;;;;;4.97;4.10;;;;;;;12.02;100.00;91206.56;5091503;28;20056;-64
2022/09/09 03:38:42;;;;;;;4.03;3.45;;;;;;;12.05;100.00;91211.28;5091358;28;20032;-64
2022/09/09 03:41:08;;;;;;;4.85;3.50;;;;;;;12.07;100.00;91203.75;5091365;28;20032;-64
2022/09/09 03:43:34;;;;;;;3.47;2.92;;;;;;;12.19;100.00;91205.81;5091637;28;20080;-64
2022/09/09 03:46:00;;;;;;;4.20;3.67;;;;;;;12.24;100.00;91209.13;5091356;28;20489;-64
2022/09/09 03:48:27;;;;;;;4.93;3.70;;;;;;;12.21;100.00;91214.31;5091327;28;20028;-64
2022/09/09 03:50:55;;;;;;;6.88;3.58;;;;;;;12.11;100.00;91215.38;5090767;28;20044;-64
2022/09/09 03:53:24;;;;;;;6.88;4.22;;;;;;;12.01;100.00;91204.22;5091245;28;20032;-64
2022/09/09 03:55:54;;;;;;;5.78;4.03;;;;;;;11.96;100.00;91208.56;5091893;28;20024;-64
2022/09/09 03:58:21;;;;;;;9.07;4.18;;;;;;;11.96;100.00;91213.13;5091250;28;20031;-65
2022/09/09 04:01:13;;;;;;;7.28;4.88;;;;;;;11.78;100.00;91214.13;5090216;28;20101;-64
2022/09/09 04:03:39;;;;;;;8.20;4.95;;;;;;;11.64;100.00;91207.03;5088276;28;20416;-64
2022/09/09 04:06:07;;;;;;;7.10;5.30;;;;;;;11.65;100.00;91219.25;5095365;28;20036;-64
2022/09/09 04:08:33;;;;;;;7.85;5.63;;;;;;;11.64;100.00;91215.03;5095291;28;20035;-64
2022/09/09 04:11:00;;;;;;;8.38;4.88;;;;;;;11.58;100.00;91208.28;5094969;28;20044;-64
2022/09/09 04:13:26;;;;;;;10.88;5.85;;;;;;;11.51;100.00;91210.56;5095129;28;20064;-64
2022/09/09 04:15:56;;;;;;;10.23;5.57;;;;;;;11.53;100.00;91205.75;5095082;28;20054;-64
2022/09/09 04:18:23;;;;;;;8.93;5.75;;;;;;;11.52;100.00;91217.50;5095372;28;20434;-64
2022/09/09 04:20:52;;;;;;;8.95;5.65;;;;;;;11.56;100.00;91215.00;5094926;28;20035;-64
2022/09/09 04:23:20;;;;;;;11.82;6.15;;;;;;;11.65;100.00;91216.59;5095057;28;20497;-64
2022/09/09 04:25:50;;;;;;;10.52;5.68;;;;;;;11.77;100.00;91215.22;5094915;28;20038;-64
2022/09/09 04:28:18;;;;;;;7.53;5.63;;;;;;;11.79;100.00;91218.41;5094885;28;20497;-64
2022/09/09 04:30:44;;;;;;;7.35;5.40;;;;;;;11.92;100.00;91212.19;5094708;28;20523;-64
2022/09/09 04:33:10;;;;;;;9.57;5.90;;;;;;;12.03;100.00;91210.81;5094753;28;20020;-64
2022/09/09 04:35:36;;;;;;;8.93;5.57;;;;;;;12.20;100.00;91213.50;5095003;28;20459;-64
2022/09/09 04:38:02;;;;;;;8.80;5.55;;;;;;;12.33;100.00;91205.69;5094727;28;20115;-64
2022/09/09 04:40:29;;;;;;;6.85;4.05;;;;;;;12.56;100.00;91215.13;5094600;28;20039;-64
2022/09/09 04:42:55;;;;;;;6.18;4.20;;;;;;;12.74;100.00;91192.69;5095155;28;20024;-64
2022/09/09 04:45:20;;;;;;;5.90;3.78;;;;;;;13.15;100.00;91197.50;5094573;28;20028;-64
2022/09/09 04:47:46;;;;;;;7.85;4.18;;;;;;;13.51;100.00;91187.56;5094558;28;20102;-64
2022/09/09 04:50:12;;;;;;;17.20;5.85;;;;;;;13.82;100.00;91196.09;5094426;28;20036;-64
2022/09/09 04:52:37;;;;;;;6.30;4.22;;;;;;;13.85;100.00;91200.78;5094345;28;20078;-64
2022/09/09 04:55:03;;;;;;;13.43;8.05;;;;;;;13.97;100.00;91198.22;5094618;28;20028;-64
2022/09/09 04:57:31;;;;;;;9.52;4.32;;;;;;;14.28;100.00;91195.22;5076156;28;20020;-64
2022/09/09 04:59:57;;;;;;;5.35;3.70;;;;;;;16.17;100.00;91200.00;5094240;28;20028;-64
2022/09/09 05:02:23;;;;;;;6.28;4.55;;;;;;;18.21;100.00;91204.56;5094248;28;20077;-64
2022/09/09 05:04:49;;;;;;;6.35;3.70;;;;;;;19.41;100.00;91205.72;5094129;28;20031;-64
2022/09/09 05:07:15;;;;;;;8.18;4.20;;;;;;;19.94;100.00;91219.47;5075901;28;20419;-64
2022/09/09 05:09:40;;;;;;;7.68;4.57;;;;;;;20.85;89.77;91202.44;5093842;28;20040;-64
2022/09/09 05:12:06;;;;;;;4.65;3.10;;;;;;;20.42;87.62;91205.63;5094018;28;20024;-65
2022/09/09 05:14:31;;;;;;;7.15;3.75;;;;;;;18.75;100.00;91206.63;5093900;28;20028;-64
2022/09/09 05:16:57;;;;;;;6.10;3.45;;;;;;;18.16;100.00;91188.69;5093302;28;20032;-65
2022/09/09 05:19:23;;;;;;;4.15;3.05;;;;;;;19.38;100.00;91184.81;5093826;28;20043;-64
2022/09/09 05:21:49;;;;;;;5.65;3.25;;;;;;;21.49;84.34;91175.47;5093883;28;20097;-65
2022/09/09 05:24:15;;;;;;;7.38;3.63;;;;;;;23.79;67.97;91186.56;5093805;28;20024;-65
2022/09/09 05:26:40;;;;;;;4.70;2.90;;;;;;;25.07;60.06;91189.47;5093939;28;20038;-65
2022/09/09 05:29:06;;;;;;;3.85;3.15;;;;;;;24.83;58.73;91184.03;5093516;28;20050;-65
2022/09/09 05:31:32;;;;;;;4.53;2.92;;;;;;;25.84;55.40;91180.72;5075377;28;20036;-65
2022/09/09 05:33:58;;;;;;;4.85;2.90;;;;;;;26.15;53.46;91173.53;5093497;28;20091;-65
2022/09/09 05:36:24;;;;;;;4.88;3.47;;;;;;;26.25;52.89;91170.75;5093545;28;20093;-65
2022/09/09 05:38:50;;;;;;;16.13;9.55;;;;;;;27.34;50.72;91167.59;5093420;28;20032;-65
2022/09/09 05:41:17;;;;;;;4.85;3.30;;;;;;;29.04;47.07;91157.56;5075319;28;20040;-65
2022/09/09 05:43:46;;;;;;;5.00;3.72;;;;;;;29.60;45.94;91164.00;5093432;28;20026;-65
2022/09/09 05:46:16;;;;;;;3.42;2.70;;;;;;;29.85;44.54;91160.78;5093367;28;20408;-65
2022/09/09 05:48:46;;;;;;;7.57;3.05;;;;;;;30.37;43.46;91163.63;5093238;28;20115;-65
2022/09/09 05:51:17;;;;;;;7.70;3.20;;;;;;;29.37;45.67;91169.50;5093540;28;20035;-65
2022/09/09 05:53:43;;;;;;;4.20;3.47;;;;;;;30.01;44.65;91168.31;5093172;28;20038;-64
2022/09/09 05:56:10;;;;;;;5.35;3.50;;;;;;;31.62;42.83;91165.41;5093193;28;20111;-63
2022/09/09 05:58:36;;;;;;;5.75;3.42;;;;;;;31.36;42.44;91159.78;5093080;28;20560;-63
2022/09/09 06:01:08;;;;;;;4.57;3.45;;;;;;;29.19;45.86;91161.59;5093143;28;20055;-63
2022/09/09 06:03:38;;;;;;;9.38;3.50;;;;;;;29.00;46.54;91173.28;5093104;28;20028;-63
2022/09/09 06:06:06;;;;;;;5.30;3.20;;;;;;;29.93;45.30;91175.13;5092307;28;20064;-63
2022/09/09 06:08:38;;;;;;;5.47;3.72;;;;;;;29.87;44.74;91179.56;5093072;28;20105;-63
2022/09/09 06:11:12;;;;;;;7.72;3.58;;;;;;;29.69;45.08;91177.94;5092780;28;20083;-63
2022/09/09 06:13:39;;;;;;;38.28;31.00;;;;;;;30.96;43.23;91181.19;5092796;28;20024;-63
2022/09/09 06:16:11;;;;;;;7.50;5.57;;;;;;;32.54;40.42;91173.88;5092828;28;20035;-63
2022/09/09 06:18:36;;;;;;;5.95;3.80;;;;;;;34.03;37.78;91179.28;5092663;28;20024;-63
2022/09/09 06:21:04;;;;;;;8.65;4.68;;;;;;;32.95;38.39;91181.28;5092667;28;20088;-63
2022/09/09 06:23:31;;;;;;;8.38;5.30;;;;;;;33.33;38.66;91178.50;5093042;28;20028;-63
2022/09/09 06:26:26;;;;;;;5.88;4.70;;;;;;;35.58;36.03;91181.31;5092660;28;20043;-63
2022/09/09 06:28:54;;;;;;;6.43;3.80;;;;;;;36.09;35.20;91187.06;5075120;28;20043;-63
2022/09/09 06:31:23;;;;;;;6.82;4.32;;;;;;;36.54;34.47;91194.59;5092530;28;20039;-63
2022/09/09 06:33:50;;;;;;;5.30;4.22;;;;;;;37.37;33.23;91188.81;5092574;28;20510;-63
2022/09/09 06:36:18;;;;;;;6.50;3.85;;;;;;;36.61;34.35;91199.03;5092464;28;20047;-63
2022/09/09 06:38:44;;;;;;;4.93;3.35;;;;;;;37.09;33.29;91191.72;5092325;28;20023;-63
2022/09/09 06:41:12;;;;;;;4.10;3.70;;;;;;;36.94;33.48;91193.63;5092297;28;20031;-63
2022/09/09 06:43:38;;;;;;;6.88;4.07;;;;;;;36.94;34.20;91182.53;5092473;28;20020;-63
2022/09/09 06:46:08;;;;;;;5.05;3.55;;;;;;;37.25;33.03;91189.81;5092427;28;20089;-63
2022/09/09 06:48:47;;;;;;;3.75;3.33;;;;;;;36.89;33.12;91181.13;5150225;27;20397;-64
2022/09/09 06:51:15;;;;;;;4.65;3.90;;;;;;;36.79;33.46;91185.16;5150534;27;20050;-64
2022/09/09 06:53:42;;;;;;;4.55;3.70;;;;;;;37.47;33.10;91190.31;5150259;27;20053;-64
2022/09/09 06:56:10;;;;;;;3.97;3.50;;;;;;;37.84;32.13;91190.13;5150191;27;20515;-64
2022/09/09 06:58:43;;;;;;;5.30;3.70;;;;;;;37.35;33.05;91194.84;5150067;27;20023;-64
2022/09/09 07:01:14;;;;;;;4.20;3.80;;;;;;;38.22;31.99;91181.84;5150301;27;20050;-64
2022/09/09 07:03:42;;;;;;;3.97;3.58;;;;;;;38.64;32.16;91191.97;5150020;27;20528;-64
2022/09/09 07:06:14;;;;;;;5.20;3.45;;;;;;;39.26;30.49;91199.34;5150031;27;20039;-64
2022/09/09 07:08:39;;;;;;;6.00;3.85;;;;;;;37.39;32.17;91194.66;5150121;27;20126;-64
2022/09/09 07:11:07;;;;;;;6.20;4.00;;;;;;;37.38;32.92;91185.56;5149819;27;20188;-64
2022/09/09 07:13:34;;;;;;;5.00;4.10;;;;;;;37.79;32.40;91188.75;5149831;27;20059;-65
2022/09/09 07:16:07;;;;;;;4.15;3.30;;;;;;;36.63;34.21;91185.50;5149842;27;20106;-64
2022/09/09 07:18:34;;;;;;;6.05;3.75;;;;;;;36.30;32.80;91185.38;5149682;27;20095;-64
2022/09/09 07:21:01;;;;;;;3.15;2.85;;;;;;;36.07;33.44;91199.84;5150035;27;20562;-64
2022/09/09 07:23:28;;;;;;;3.72;3.10;;;;;;;35.96;34.06;91198.28;5149901;27;20062;-64
2022/09/09 07:25:53;;;;;;;5.32;3.47;;;;;;;36.84;32.62;91184.53;5149497;27;20122;-64
2022/09/09 07:28:22;;;;;;;4.55;2.90;;;;;;;39.01;31.00;91191.59;5149399;27;20475;-64
2022/09/09 07:30:58;;;;;;;5.93;3.08;;;;;;;39.76;30.18;91196.56;5149473;27;20035;-64
2022/09/09 07:33:26;;;;;;;4.60;3.17;;;;;;;39.93;30.06;91182.88;5149366;27;20035;-65
2022/09/09 07:35:53;;;;;;;3.78;3.47;;;;;;;38.55;31.26;91187.25;5130238;27;20054;-65
2022/09/09 07:38:20;;;;;;;5.20;3.33;;;;;;;40.13;29.65;91193.28;5149193;27;20043;-65
2022/09/09 07:40:46;;;;;;;3.92;3.03;;;;;;;39.77;29.88;91195.34;5149332;27;20034;-64
2022/09/09 07:43:11;;;;;;;5.57;3.25;;;;;;;39.66;29.83;91192.38;5149209;27;20035;-64
2022/09/09 07:45:37;;;;;;;4.07;3.10;;;;;;;40.91;28.99;91178.19;5149197;27;20027;-64
2022/09/09 07:48:03;;;;;;;3.45;3.10;;;;;;;40.82;28.79;91172.75;5148901;27;20060;-64
2022/09/09 07:50:29;;;;;;;4.95;4.18;;;;;;;40.51;29.15;91181.06;5149070;27;20042;-64
2022/09/09 07:52:55;;;;;;;10.05;8.75;;;;;;;41.82;28.20;91177.59;5149299;27;20046;-64
2022/09/09 07:55:25;;;;;;;4.20;3.10;;;;;;;41.84;27.78;91177.88;5149042;27;20564;-64
2022/09/09 07:57:51;;;;;;;4.10;3.15;;;;;;;39.23;30.25;91186.41;5148218;27;20452;-64
2022/09/09 08:00:18;;;;;;;7.90;4.88;;;;;;;39.20;31.05;91181.81;5116158;27;20070;-64
2022/09/09 08:02:45;;;;;;;4.25;3.75;;;;;;;39.69;30.26;91175.47;5134943;27;20046;-64
2022/09/09 08:05:10;;;;;;;4.07;3.67;;;;;;;41.13;28.98;91176.84;5135052;27;20070;-64
2022/09/09 08:07:36;;;;;;;5.90;4.30;;;;;;;41.13;28.96;91174.03;5135119;27;20073;-65
2022/09/09 08:10:03;;;;;;;58.85;52.80;;;;;;;39.89;30.14;91188.63;5134890;27;20028;-64
2022/09/09 08:12:28;;;;;;;11.43;5.47;;;;;;;39.31;31.08;91184.78;5134872;27;20084;-64
2022/09/09 08:14:54;;;;;;;6.95;5.82;;;;;;;39.98;29.58;91182.97;5134830;27;20043;-64
2022/09/09 08:17:19;;;;;;;24.17;21.70;;;;;;;39.46;30.64;91188.28;5116374;27;20034;-64
2022/09/09 08:19:45;;;;;;;48.40;41.78;;;;;;;40.85;29.25;91191.31;5134660;27;20091;-64
2022/09/09 08:22:10;;;;;;;10.00;8.85;;;;;;;39.61;30.50;91190.25;5134666;27;20428;-64
2022/09/09 08:24:36;;;;;;;10.63;5.43;;;;;;;36.87;33.61;91175.28;5134598;27;20035;-64
2022/09/09 08:27:01;;;;;;;18.40;15.05;;;;;;;36.32;34.22;91171.88;5134505;27;20023;-64
2022/09/09 08:29:28;;;;;;;4.60;4.13;;;;;;;35.69;35.09;91176.88;5134471;27;20415;-64
2022/09/09 08:31:57;;;;;;;5.05;3.70;;;;;;;33.75;37.46;91161.72;5134435;27;20041;-64
2022/09/09 08:34:25;;;;;;;4.68;3.63;;;;;;;33.06;38.82;91164.41;5127279;27;20028;-65
2022/09/09 08:36:51;;;;;;;4.28;3.15;;;;;;;32.82;39.87;91163.97;5126277;27;20039;-65
2022/09/09 08:39:19;;;;;;;7.40;5.80;;;;;;;32.51;39.93;91162.94;5134218;27;20035;-65
2022/09/09 08:42:02;;;;;;;4.47;3.40;;;;;;;31.95;40.29;91166.09;5133189;27;20040;-65
2022/09/09 08:45:23;;;;;;;4.35;3.00;;;;;;;33.19;39.99;91159.66;5134172;27;20058;-65
2022/09/09 08:48:19;;;;;;;4.00;3.05;;;;;;;36.59;35.04;91155.16;5074111;27;20043;-65
2022/09/09 08:50:48;;;;;;;3.13;2.90;;;;;;;37.28;33.87;91170.22;5134084;27;20031;-65
2022/09/09 08:53:31;;;;;;;3.15;2.85;;;;;;;37.54;33.68;91169.75;5134099;27;20457;-65
2022/09/09 08:55:59;;;;;;;4.82;2.83;;;;;;;36.36;34.44;91163.38;5134035;27;20039;-65
2022/09/09 08:58:33;;;;;;;3.97;2.85;;;;;;;35.81;35.44;91171.66;5133823;27;20059;-65
2022/09/09 09:01:08;;;;;;;2.97;2.67;;;;;;;37.91;33.58;91170.31;5133920;27;20074;-65
2022/09/09 09:04:10;;;;;;;3.78;2.60;;;;;;;38.85;31.52;91171.38;5133876;27;20074;-65
2022/09/09 09:06:44;;;;;;;3.73;3.43;;;;;;;38.70;31.36;91165.03;5133662;27;20042;-65
2022/09/09 09:09:13;;;;;;;2.80;2.50;;;;;;;38.11;32.13;91159.34;5133633;27;20272;-65
2022/09/09 09:11:47;;;;;;;3.08;2.53;;;;;;;37.31;33.15;91171.28;5132647;27;20500;-65
2022/09/09 09:14:24;;;;;;;3.72;2.38;;;;;;;37.84;32.58;91165.13;5133605;27;20039;-65
2022/09/09 09:17:09;;;;;;;2.78;2.38;;;;;;;36.62;33.66;91161.03;5133527;27;20035;-65
2022/09/09 09:19:38;;;;;;;16.63;5.43;;;;;;;36.19;35.25;91162.91;5133698;27;20035;-65
2022/09/09 09:22:26;;;;;;;5.88;3.45;;;;;;;33.79;37.85;91161.59;5133542;27;20043;-65
2022/09/09 09:25:04;;;;;;;6.45;3.00;;;;;;;35.99;35.73;91157.84;5133494;27;20424;-65
2022/09/09 09:27:51;;;;;;;2.67;2.35;;;;;;;37.96;32.33;91175.22;5133345;27;20043;-65
2022/09/09 09:30:19;;;;;;;4.60;2.83;;;;;;;37.50;32.94;91164.38;5133296;27;20061;-65
2022/09/09 09:32:58;;;;;;;4.22;3.08;;;;;;;36.50;34.23;91163.50;5133481;27;20035;-65
2022/09/09 09:35:23;;;;;;;2.40;2.20;;;;;;;38.14;31.48;91165.97;5133129;27;20096;-65
2022/09/09 09:37:49;;;;;;;4.30;2.42;;;;;;;38.08;32.07;91163.09;5133216;27;20106;-65
2022/09/09 09:40:18;;;;;;;3.13;2.58;;;;;;;40.03;30.69;91156.41;5133089;27;20431;-65
2022/09/09 09:43:08;;;;;;;4.70;2.97;;;;;;;40.72;29.51;91151.88;5133171;27;20412;-65
2022/09/09 09:45:34;;;;;;;3.15;2.40;;;;;;;41.59;28.59;91154.34;5133026;27;20590;-65
2022/09/09 09:48:10;;;;;;;5.20;2.70;;;;;;;40.56;29.11;91153.22;5132792;27;20072;-65
2022/09/09 09:50:46;;;;;;;3.78;2.75;;;;;;;36.87;33.39;91157.88;5132988;27;20046;-65
2022/09/09 09:53:25;;;;;;;6.72;2.85;;;;;;;35.90;34.40;91150.31;5133200;27;20091;-65
2022/09/09 09:56:01;;;;;;;4.95;2.60;;;;;;;36.32;33.76;91149.69;5132980;27;20121;-64
2022/09/09 09:58:31;;;;;;;7.78;3.10;;;;;;;36.32;35.46;91155.22;5132611;27;20119;-65
2022/09/09 10:00:56;;;;;;;5.85;4.40;;;;;;;38.35;32.30;91146.22;5132717;27;20075;-65
2022/09/09 10:03:31;;;;;;;3.10;2.75;;;;;;;38.44;32.30;91141.78;5133080;27;20074;-65
2022/09/09 10:05:57;;;;;;;6.30;2.65;;;;;;;38.63;31.41;91134.78;5132733;27;20039;-65
2022/09/09 10:08:27;;;;;;;3.40;2.88;;;;;;;38.08;32.33;91132.53;5132476;27;20038;-65
2022/09/09 10:11:09;;;;;;;7.18;5.35;;;;;;;37.75;32.55;91138.97;5132566;27;20036;-65
2022/09/09 10:13:46;;;;;;;16.40;2.70;;;;;;;35.88;33.50;91133.38;5132625;27;20046;-65
2022/09/09 10:16:55;;;;;;;4.43;2.65;;;;;;;34.07;35.90;91137.75;5132525;27;20408;-65
2022/09/09 10:19:33;;;;;;;6.28;2.38;;;;;;;33.15;38.71;91133.41;5132415;27;20042;-65
2022/09/09 10:22:12;;;;;;;5.40;2.80;;;;;;;32.83;38.53;91131.69;5132343;27;20042;-65
2022/09/09 10:24:48;;;;;;;3.33;2.40;;;;;;;33.62;38.12;91139.69;5132458;27;20039;-65
2022/09/09 10:27:14;;;;;;;11.93;4.78;;;;;;;36.95;34.61;91139.69;5132335;27;20042;-65
2022/09/09 10:29:59;;;;;;;4.73;3.83;;;;;;;35.99;33.50;91146.78;5132519;27;20027;-65
2022/09/09 10:32:48;;;;;;;5.47;2.88;;;;;;;35.14;34.39;91153.81;5132305;27;20300;-65
2022/09/09 10:35:38;;;;;;;3.70;2.95;;;;;;;34.10;35.65;91145.91;5132337;27;20031;-65
2022/09/09 10:38:13;;;;;;;4.55;2.58;;;;;;;35.55;34.46;91155.34;5113916;28;20431;-65
2022/09/09 10:40:44;;;;;;;3.13;2.65;;;;;;;35.84;33.85;91154.94;5132523;27;20066;-65
2022/09/09 10:43:38;;;;;;;3.55;2.95;;;;;;;35.58;34.96;91153.66;5132222;27;20038;-65
2022/09/09 10:46:22;;;;;;;3.67;2.85;;;;;;;36.59;33.52;91151.63;5132182;28;20096;-65
2022/09/09 10:48:56;;;;;;;3.63;2.60;;;;;;;35.30;35.14;91150.03;5131738;28;20039;-65
2022/09/09 10:51:30;;;;;;;2.90;2.60;;;;;;;33.14;38.15;91143.66;5113577;28;20500;-65
2022/09/09 10:54:33;;;;;;;3.45;2.97;;;;;;;32.51;39.05;91138.13;5132111;28;20023;-65
2022/09/09 10:57:06;;;;;;;2.55;2.22;;;;;;;32.04;39.88;91147.00;5132143;28;20054;-65
2022/09/09 10:59:47;;;;;;;2.97;2.67;;;;;;;31.70;40.87;91145.50;5131923;28;20126;-65
2022/09/09 11:02:27;;;;;;;3.25;2.65;;;;;;;30.64;42.63;91151.72;5132055;28;20035;-65
2022/09/09 11:04:55;;;;;;;3.40;2.58;;;;;;;29.65;42.55;91140.81;5132056;28;20031;-64
2022/09/09 11:07:53;;;;;;;3.53;3.08;;;;;;;29.11;46.64;91143.72;5131888;28;20031;-64
2022/09/09 11:10:19;;;;;;;4.65;3.20;;;;;;;29.04;45.69;91135.66;5127835;28;20066;-64
2022/09/09 11:12:48;;;;;;;11.10;8.32;;;;;;;29.10;46.62;91134.75;5131895;28;20067;-65
2022/09/09 11:15:21;;;;;;;3.90;3.25;;;;;;;29.20;45.10;91133.78;5131901;28;20100;-64
2022/09/09 11:17:56;;;;;;;3.53;3.20;;;;;;;28.79;47.34;91142.28;5131945;28;20136;-65
2022/09/09 11:20:22;;;;;;;4.82;3.10;;;;;;;28.28;49.09;91146.97;5131893;28;20571;-64
2022/09/09 11:22:57;;;;;;;4.32;3.30;;;;;;;27.72;50.27;91148.44;5131814;28;20039;-65
2022/09/09 11:25:31;;;;;;;9.07;3.72;;;;;;;27.15;53.74;91149.84;5131811;28;20047;-65
2022/09/09 11:28:03;;;;;;;4.47;3.25;;;;;;;26.83;54.95;91135.69;5131618;28;20032;-64
2022/09/09 11:30:37;;;;;;;4.50;3.88;;;;;;;26.90;56.57;91149.25;5131913;28;20504;-64
2022/09/09 11:33:37;;;;;;;5.28;3.13;;;;;;;27.07;56.48;91142.88;5113390;28;20030;-64
2022/09/09 11:36:34;;;;;;;9.40;6.28;;;;;;;27.51;55.62;91145.94;5124993;27;20043;-64
2022/09/09 11:39:36;;;;;;;4.97;3.22;;;;;;;28.21;54.05;91138.81;5135586;27;20045;-64
2022/09/09 11:42:08;;;;;;;5.30;3.78;;;;;;;28.48;53.90;91149.03;5103109;27;20031;-64
2022/09/09 11:44:33;;;;;;;6.10;3.63;;;;;;;29.51;51.20;91148.13;5135512;27;20496;-64
2022/09/09 11:46:59;;;;;;;4.53;3.55;;;;;;;29.98;50.93;91148.00;5135183;27;20041;-64
2022/09/09 11:49:40;;;;;;;4.63;3.85;;;;;;;29.30;51.38;91147.69;5135286;27;20102;-65
2022/09/09 11:52:35;;;;;;;5.55;3.88;;;;;;;30.79;48.89;91138.41;5135583;27;20058;-65